sensor_id;sensor_type;location;lat;lon;timestamp;temperature;humidity
17152;DHT22;8691;50.828;4.700;2022-07-10T00:01:21;14.70;99.90
17152;DHT22;8691;50.828;4.700;2022-07-10T00:03:48;14.70;99.90
17152;DHT22;8691;50.828;4.700;2022-07-10T00:06:15;14.70;99.90
17152;DHT22;8691;50.828;4.700;2022-07-10T00:08:42;14.70;99.90
17152;DHT22;8691;50.828;4.700;2022-07-10T00:11:09;14.60;99.90
17152;DHT22;8691;50.828;4.700;2022-07-10T00:13:35;14.60;99.90
17152;DHT22;8691;50.828;4.700;2022-07-10T00:16:02;14.60;99.90
17152;DHT22;8691;50.828;4.700;2022-07-10T00:18:29;14.60;99.90
17152;DHT22;8691;50.828;4.700;2022-07-10T00:20:55;14.60;99.90
17152;DHT22;8691;50.828;4.700;2022-07-10T00:23:22;14.50;99.90
17152;DHT22;8691;50.828;4.700;2022-07-10T00:25:48;14.50;99.90
17152;DHT22;8691;50.828;4.700;2022-07-10T00:28:15;14.50;99.90
17152;DHT22;8691;50.828;4.700;2022-07-10T00:30:42;14.50;99.90
17152;DHT22;8691;50.828;4.700;2022-07-10T00:33:08;14.40;99.90
17152;DHT22;8691;50.828;4.700;2022-07-10T00:35:36;14.30;99.90
17152;DHT22;8691;50.828;4.700;2022-07-10T00:38:02;14.30;99.90
17152;DHT22;8691;50.828;4.700;2022-07-10T00:40:30;14.20;99.90
17152;DHT22;8691;50.828;4.700;2022-07-10T00:42:57;14.10;99.90
17152;DHT22;8691;50.828;4.700;2022-07-10T00:45:24;14.10;99.90
17152;DHT22;8691;50.828;4.700;2022-07-10T00:47:50;14.10;99.90
17152;DHT22;8691;50.828;4.700;2022-07-10T00:50:17;14.00;99.90
17152;DHT22;8691;50.828;4.700;2022-07-10T00:52:44;14.00;99.90
17152;DHT22;8691;50.828;4.700;2022-07-10T00:55:11;14.00;99.90
17152;DHT22;8691;50.828;4.700;2022-07-10T00:57:38;14.00;99.90
17152;DHT22;8691;50.828;4.700;2022-07-10T01:00:06;14.00;99.90
17152;DHT22;8691;50.828;4.700;2022-07-10T01:02:32;14.00;99.90
17152;DHT22;8691;50.828;4.700;2022-07-10T01:04:59;14.00;99.90
17152;DHT22;8691;50.828;4.700;2022-07-10T01:07:27;13.90;99.90
17152;DHT22;8691;50.828;4.700;2022-07-10T01:09:54;13.90;99.90
17152;DHT22;8691;50.828;4.700;2022-07-10T01:12:20;13.90;99.90
17152;DHT22;8691;50.828;4.700;2022-07-10T01:14:48;13.80;99.90
17152;DHT22;8691;50.828;4.700;2022-07-10T01:17:14;13.80;99.90
17152;DHT22;8691;50.828;4.700;2022-07-10T01:19:42;13.70;99.90
17152;DHT22;8691;50.828;4.700;2022-07-10T01:22:08;13.70;99.90
17152;DHT22;8691;50.828;4.700;2022-07-10T01:24:36;13.60;99.90
17152;DHT22;8691;50.828;4.700;2022-07-10T01:27:02;13.50;99.90
17152;DHT22;8691;50.828;4.700;2022-07-10T01:29:29;13.50;99.90
17152;DHT22;8691;50.828;4.700;2022-07-10T01:31:55;13.40;99.90
17152;DHT22;8691;50.828;4.700;2022-07-10T01:34:22;13.40;99.90
17152;DHT22;8691;50.828;4.700;2022-07-10T01:36:49;13.30;99.90
17152;DHT22;8691;50.828;4.700;2022-07-10T01:39:15;13.30;99.90
17152;DHT22;8691;50.828;4.700;2022-07-10T01:41:42;13.20;99.90
17152;DHT22;8691;50.828;4.700;2022-07-10T01:44:09;13.20;99.90
17152;DHT22;8691;50.828;4.700;2022-07-10T01:46:35;13.10;99.90
17152;DHT22;8691;50.828;4.700;2022-07-10T01:49:02;13.00;99.90
17152;DHT22;8691;50.828;4.700;2022-07-10T01:51:28;13.00;99.90
17152;DHT22;8691;50.828;4.700;2022-07-10T01:53:55;13.00;99.90
17152;DHT22;8691;50.828;4.700;2022-07-10T01:56:22;12.90;99.90
17152;DHT22;8691;50.828;4.700;2022-07-10T01:58:49;12.90;99.90
17152;DHT22;8691;50.828;4.700;2022-07-10T02:01:16;12.90;99.90
17152;DHT22;8691;50.828;4.700;2022-07-10T02:03:43;12.90;99.90
17152;DHT22;8691;50.828;4.700;2022-07-10T02:06:28;12.90;99.90
17152;DHT22;8691;50.828;4.700;2022-07-10T02:08:55;12.80;99.90
17152;DHT22;8691;50.828;4.700;2022-07-10T02:11:22;12.90;99.90
17152;DHT22;8691;50.828;4.700;2022-07-10T02:13:48;12.90;99.90
17152;DHT22;8691;50.828;4.700;2022-07-10T02:16:15;12.80;99.90
17152;DHT22;8691;50.828;4.700;2022-07-10T02:18:42;12.80;99.90
17152;DHT22;8691;50.828;4.700;2022-07-10T02:21:09;12.80;99.90
17152;DHT22;8691;50.828;4.700;2022-07-10T02:23:37;12.70;99.90
17152;DHT22;8691;50.828;4.700;2022-07-10T02:26:04;12.60;99.90
17152;DHT22;8691;50.828;4.700;2022-07-10T02:28:31;12.70;99.90
17152;DHT22;8691;50.828;4.700;2022-07-10T02:30:58;12.70;99.90
17152;DHT22;8691;50.828;4.700;2022-07-10T02:33:26;12.60;99.90
17152;DHT22;8691;50.828;4.700;2022-07-10T02:35:53;12.60;99.90
17152;DHT22;8691;50.828;4.700;2022-07-10T02:38:20;12.60;99.90
17152;DHT22;8691;50.828;4.700;2022-07-10T02:40:47;12.60;99.90
17152;DHT22;8691;50.828;4.700;2022-07-10T02:43:14;12.60;99.90
17152;DHT22;8691;50.828;4.700;2022-07-10T02:45:41;12.60;99.90
17152;DHT22;8691;50.828;4.700;2022-07-10T02:48:08;12.50;99.90
17152;DHT22;8691;50.828;4.700;2022-07-10T02:50:35;12.50;99.90
17152;DHT22;8691;50.828;4.700;2022-07-10T02:53:02;12.50;99.90
17152;DHT22;8691;50.828;4.700;2022-07-10T02:55:29;12.50;99.90
17152;DHT22;8691;50.828;4.700;2022-07-10T02:57:57;12.40;99.90
17152;DHT22;8691;50.828;4.700;2022-07-10T03:00:23;12.40;99.90
17152;DHT22;8691;50.828;4.700;2022-07-10T03:02:50;12.30;99.90
17152;DHT22;8691;50.828;4.700;2022-07-10T03:05:17;12.30;99.90
17152;DHT22;8691;50.828;4.700;2022-07-10T03:07:44;12.30;99.90
17152;DHT22;8691;50.828;4.700;2022-07-10T03:10:11;12.30;99.90
17152;DHT22;8691;50.828;4.700;2022-07-10T03:12:38;12.30;99.90
17152;DHT22;8691;50.828;4.700;2022-07-10T03:15:05;12.30;99.90
17152;DHT22;8691;50.828;4.700;2022-07-10T03:17:33;12.20;99.90
17152;DHT22;8691;50.828;4.700;2022-07-10T03:20:00;12.20;99.90
17152;DHT22;8691;50.828;4.700;2022-07-10T03:22:27;12.20;99.90
17152;DHT22;8691;50.828;4.700;2022-07-10T03:24:54;12.10;99.90
17152;DHT22;8691;50.828;4.700;2022-07-10T03:27:21;12.10;99.90
17152;DHT22;8691;50.828;4.700;2022-07-10T03:29:48;12.10;99.90
17152;DHT22;8691;50.828;4.700;2022-07-10T03:32:15;12.10;99.90
17152;DHT22;8691;50.828;4.700;2022-07-10T03:34:42;12.10;99.90
17152;DHT22;8691;50.828;4.700;2022-07-10T03:37:09;12.10;99.90
17152;DHT22;8691;50.828;4.700;2022-07-10T03:39:36;12.20;99.90
17152;DHT22;8691;50.828;4.700;2022-07-10T03:42:03;12.20;99.90
17152;DHT22;8691;50.828;4.700;2022-07-10T03:44:29;12.10;99.90
17152;DHT22;8691;50.828;4.700;2022-07-10T03:46:56;12.10;99.90
17152;DHT22;8691;50.828;4.700;2022-07-10T03:49:23;12.10;99.90
17152;DHT22;8691;50.828;4.700;2022-07-10T03:51:50;12.20;99.90
17152;DHT22;8691;50.828;4.700;2022-07-10T03:54:17;12.10;99.90
17152;DHT22;8691;50.828;4.700;2022-07-10T03:56:44;12.10;99.90
17152;DHT22;8691;50.828;4.700;2022-07-10T03:59:30;12.00;99.90
17152;DHT22;8691;50.828;4.700;2022-07-10T04:01:57;12.10;99.90
17152;DHT22;8691;50.828;4.700;2022-07-10T04:04:25;12.20;99.90
17152;DHT22;8691;50.828;4.700;2022-07-10T04:06:51;12.10;99.90
17152;DHT22;8691;50.828;4.700;2022-07-10T04:09:18;12.20;99.90
17152;DHT22;8691;50.828;4.700;2022-07-10T04:11:45;12.30;99.90
17152;DHT22;8691;50.828;4.700;2022-07-10T04:14:12;12.40;99.90
17152;DHT22;8691;50.828;4.700;2022-07-10T04:16:39;12.50;99.90
17152;DHT22;8691;50.828;4.700;2022-07-10T04:19:06;12.50;99.90
17152;DHT22;8691;50.828;4.700;2022-07-10T04:21:32;12.50;99.90
17152;DHT22;8691;50.828;4.700;2022-07-10T04:24:01;12.70;99.90
17152;DHT22;8691;50.828;4.700;2022-07-10T04:26:29;12.70;99.90
17152;DHT22;8691;50.828;4.700;2022-07-10T04:28:55;12.70;99.90
17152;DHT22;8691;50.828;4.700;2022-07-10T04:31:22;12.80;99.90
17152;DHT22;8691;50.828;4.700;2022-07-10T04:33:49;12.80;99.90
17152;DHT22;8691;50.828;4.700;2022-07-10T04:36:16;12.80;99.90
17152;DHT22;8691;50.828;4.700;2022-07-10T04:38:43;12.90;99.90
17152;DHT22;8691;50.828;4.700;2022-07-10T04:41:10;12.90;99.90
17152;DHT22;8691;50.828;4.700;2022-07-10T04:43:36;13.00;99.90
17152;DHT22;8691;50.828;4.700;2022-07-10T04:46:04;13.20;99.90
17152;DHT22;8691;50.828;4.700;2022-07-10T04:48:31;13.20;99.90
17152;DHT22;8691;50.828;4.700;2022-07-10T04:50:58;13.40;99.90
17152;DHT22;8691;50.828;4.700;2022-07-10T04:53:24;13.50;99.90
17152;DHT22;8691;50.828;4.700;2022-07-10T04:55:51;13.80;99.90
17152;DHT22;8691;50.828;4.700;2022-07-10T04:58:19;14.20;99.90
17152;DHT22;8691;50.828;4.700;2022-07-10T05:00:46;14.20;99.90
17152;DHT22;8691;50.828;4.700;2022-07-10T05:03:13;14.30;99.90
17152;DHT22;8691;50.828;4.700;2022-07-10T05:05:40;14.30;99.90
17152;DHT22;8691;50.828;4.700;2022-07-10T05:08:07;14.50;99.90
17152;DHT22;8691;50.828;4.700;2022-07-10T05:10:33;14.70;99.90
17152;DHT22;8691;50.828;4.700;2022-07-10T05:13:00;14.70;99.90
17152;DHT22;8691;50.828;4.700;2022-07-10T05:15:28;14.80;99.90
17152;DHT22;8691;50.828;4.700;2022-07-10T05:17:55;14.70;99.90
17152;DHT22;8691;50.828;4.700;2022-07-10T05:20:23;15.10;99.90
17152;DHT22;8691;50.828;4.700;2022-07-10T05:22:49;15.00;99.90
17152;DHT22;8691;50.828;4.700;2022-07-10T05:25:16;15.20;99.90
17152;DHT22;8691;50.828;4.700;2022-07-10T05:27:43;15.30;99.90
17152;DHT22;8691;50.828;4.700;2022-07-10T05:30:11;15.40;99.90
17152;DHT22;8691;50.828;4.700;2022-07-10T05:32:45;15.40;99.90
17152;DHT22;8691;50.828;4.700;2022-07-10T05:35:13;15.40;99.90
17152;DHT22;8691;50.828;4.700;2022-07-10T05:37:39;15.70;99.90
17152;DHT22;8691;50.828;4.700;2022-07-10T05:40:06;15.60;99.90
17152;DHT22;8691;50.828;4.700;2022-07-10T05:42:35;15.80;99.90
17152;DHT22;8691;50.828;4.700;2022-07-10T05:45:02;15.80;99.90
17152;DHT22;8691;50.828;4.700;2022-07-10T05:47:29;15.90;99.90
17152;DHT22;8691;50.828;4.700;2022-07-10T05:49:55;16.00;99.90
17152;DHT22;8691;50.828;4.700;2022-07-10T05:52:22;16.10;99.90
17152;DHT22;8691;50.828;4.700;2022-07-10T05:54:49;16.20;99.90
17152;DHT22;8691;50.828;4.700;2022-07-10T05:57:16;16.30;99.90
17152;DHT22;8691;50.828;4.700;2022-07-10T05:59:43;16.50;99.90
17152;DHT22;8691;50.828;4.700;2022-07-10T06:02:10;16.70;99.90
17152;DHT22;8691;50.828;4.700;2022-07-10T06:04:36;16.90;99.90
17152;DHT22;8691;50.828;4.700;2022-07-10T06:07:03;17.10;99.90
17152;DHT22;8691;50.828;4.700;2022-07-10T06:09:30;17.30;99.90
17152;DHT22;8691;50.828;4.700;2022-07-10T06:11:57;17.60;99.90
17152;DHT22;8691;50.828;4.700;2022-07-10T06:14:24;17.80;99.90
17152;DHT22;8691;50.828;4.700;2022-07-10T06:16:51;17.80;99.90
17152;DHT22;8691;50.828;4.700;2022-07-10T06:19:18;18.10;99.90
17152;DHT22;8691;50.828;4.700;2022-07-10T06:21:46;18.20;99.90
17152;DHT22;8691;50.828;4.700;2022-07-10T06:24:13;18.20;99.90
17152;DHT22;8691;50.828;4.700;2022-07-10T06:26:40;18.50;99.90
17152;DHT22;8691;50.828;4.700;2022-07-10T06:29:08;18.50;99.90
17152;DHT22;8691;50.828;4.700;2022-07-10T06:31:35;18.50;99.90
17152;DHT22;8691;50.828;4.700;2022-07-10T06:34:02;18.50;99.90
17152;DHT22;8691;50.828;4.700;2022-07-10T06:36:29;18.70;99.90
17152;DHT22;8691;50.828;4.700;2022-07-10T06:38:56;18.90;99.90
17152;DHT22;8691;50.828;4.700;2022-07-10T06:41:22;19.00;99.90
17152;DHT22;8691;50.828;4.700;2022-07-10T06:43:49;19.10;99.90
17152;DHT22;8691;50.828;4.700;2022-07-10T06:46:17;19.20;99.90
17152;DHT22;8691;50.828;4.700;2022-07-10T06:48:44;19.20;99.90
17152;DHT22;8691;50.828;4.700;2022-07-10T06:51:11;19.40;99.90
17152;DHT22;8691;50.828;4.700;2022-07-10T06:53:38;19.60;99.90
17152;DHT22;8691;50.828;4.700;2022-07-10T06:56:05;19.70;99.90
17152;DHT22;8691;50.828;4.700;2022-07-10T06:58:31;19.80;99.90
17152;DHT22;8691;50.828;4.700;2022-07-10T07:00:58;19.90;99.90
17152;DHT22;8691;50.828;4.700;2022-07-10T07:03:25;20.00;99.90
17152;DHT22;8691;50.828;4.700;2022-07-10T07:05:52;20.40;99.90
17152;DHT22;8691;50.828;4.700;2022-07-10T07:08:19;20.50;98.90
17152;DHT22;8691;50.828;4.700;2022-07-10T07:10:46;20.60;98.70
17152;DHT22;8691;50.828;4.700;2022-07-10T07:13:13;20.60;99.50
17152;DHT22;8691;50.828;4.700;2022-07-10T07:15:40;20.90;98.70
17152;DHT22;8691;50.828;4.700;2022-07-10T07:18:07;20.80;98.60
17152;DHT22;8691;50.828;4.700;2022-07-10T07:20:34;21.00;98.30
17152;DHT22;8691;50.828;4.700;2022-07-10T07:23:19;20.90;98.40
17152;DHT22;8691;50.828;4.700;2022-07-10T07:25:46;20.70;98.00
17152;DHT22;8691;50.828;4.700;2022-07-10T07:28:13;20.80;97.40
17152;DHT22;8691;50.828;4.700;2022-07-10T07:30:39;21.10;96.60
17152;DHT22;8691;50.828;4.700;2022-07-10T07:33:07;21.50;95.90
17152;DHT22;8691;50.828;4.700;2022-07-10T07:35:34;21.40;95.90
17152;DHT22;8691;50.828;4.700;2022-07-10T07:38:01;21.50;94.80
17152;DHT22;8691;50.828;4.700;2022-07-10T07:40:28;21.60;95.30
17152;DHT22;8691;50.828;4.700;2022-07-10T07:42:55;21.80;95.40
17152;DHT22;8691;50.828;4.700;2022-07-10T07:45:22;22.40;94.50
17152;DHT22;8691;50.828;4.700;2022-07-10T07:47:49;23.10;93.10
17152;DHT22;8691;50.828;4.700;2022-07-10T07:50:20;24.00;91.90
17152;DHT22;8691;50.828;4.700;2022-07-10T07:52:46;24.70;90.20
17152;DHT22;8691;50.828;4.700;2022-07-10T07:55:13;25.50;88.10
17152;DHT22;8691;50.828;4.700;2022-07-10T07:57:39;26.80;82.70
17152;DHT22;8691;50.828;4.700;2022-07-10T08:00:07;28.00;78.50
17152;DHT22;8691;50.828;4.700;2022-07-10T08:02:34;28.70;74.50
17152;DHT22;8691;50.828;4.700;2022-07-10T08:05:02;29.40;71.90
17152;DHT22;8691;50.828;4.700;2022-07-10T08:07:43;29.40;71.80
17152;DHT22;8691;50.828;4.700;2022-07-10T08:10:10;30.40;67.00
17152;DHT22;8691;50.828;4.700;2022-07-10T08:12:37;30.40;66.70
17152;DHT22;8691;50.828;4.700;2022-07-10T08:15:05;30.30;66.60
17152;DHT22;8691;50.828;4.700;2022-07-10T08:17:31;30.90;65.90
17152;DHT22;8691;50.828;4.700;2022-07-10T08:19:58;32.00;63.00
17152;DHT22;8691;50.828;4.700;2022-07-10T08:22:25;32.30;60.00
17152;DHT22;8691;50.828;4.700;2022-07-10T08:24:52;32.30;60.20
17152;DHT22;8691;50.828;4.700;2022-07-10T08:27:18;32.10;60.30
17152;DHT22;8691;50.828;4.700;2022-07-10T08:29:45;32.60;58.90
17152;DHT22;8691;50.828;4.700;2022-07-10T08:32:12;32.80;57.80
17152;DHT22;8691;50.828;4.700;2022-07-10T08:34:39;32.70;56.40
17152;DHT22;8691;50.828;4.700;2022-07-10T08:37:06;32.30;56.90
17152;DHT22;8691;50.828;4.700;2022-07-10T08:39:33;31.90;58.80
17152;DHT22;8691;50.828;4.700;2022-07-10T08:42:00;32.10;57.30
17152;DHT22;8691;50.828;4.700;2022-07-10T08:44:30;32.50;57.50
17152;DHT22;8691;50.828;4.700;2022-07-10T08:46:53;32.50;57.30
17152;DHT22;8691;50.828;4.700;2022-07-10T08:49:21;32.70;56.50
17152;DHT22;8691;50.828;4.700;2022-07-10T08:51:51;32.10;57.30
17152;DHT22;8691;50.828;4.700;2022-07-10T08:54:14;32.10;57.30
17152;DHT22;8691;50.828;4.700;2022-07-10T08:56:44;32.30;57.60
17152;DHT22;8691;50.828;4.700;2022-07-10T08:59:11;31.90;57.50
17152;DHT22;8691;50.828;4.700;2022-07-10T09:01:38;30.90;60.60
17152;DHT22;8691;50.828;4.700;2022-07-10T09:04:05;31.20;58.90
17152;DHT22;8691;50.828;4.700;2022-07-10T09:06:32;30.70;60.10
17152;DHT22;8691;50.828;4.700;2022-07-10T09:09:05;31.00;60.70
17152;DHT22;8691;50.828;4.700;2022-07-10T09:11:33;31.50;58.00
17152;DHT22;8691;50.828;4.700;2022-07-10T09:14:03;31.50;58.00
17152;DHT22;8691;50.828;4.700;2022-07-10T09:16:34;31.10;58.60
17152;DHT22;8691;50.828;4.700;2022-07-10T09:19:25;31.00;58.50
17152;DHT22;8691;50.828;4.700;2022-07-10T09:21:52;30.10;59.80
17152;DHT22;8691;50.828;4.700;2022-07-10T09:24:19;30.10;59.80
17152;DHT22;8691;50.828;4.700;2022-07-10T09:29:22;27.90;66.80
17152;DHT22;8691;50.828;4.700;2022-07-10T09:34:44;27.20;67.20
17152;DHT22;8691;50.828;4.700;2022-07-10T09:37:25;27.10;68.40
17152;DHT22;8691;50.828;4.700;2022-07-10T09:39:59;27.10;68.40
17152;DHT22;8691;50.828;4.700;2022-07-10T09:42:26;27.00;68.40
17152;DHT22;8691;50.828;4.700;2022-07-10T09:44:52;26.50;69.30
17152;DHT22;8691;50.828;4.700;2022-07-10T09:47:22;26.70;71.00
17152;DHT22;8691;50.828;4.700;2022-07-10T09:49:49;26.60;70.30
17152;DHT22;8691;50.828;4.700;2022-07-10T09:52:16;26.20;70.30
17152;DHT22;8691;50.828;4.700;2022-07-10T09:54:43;26.30;72.10
17152;DHT22;8691;50.828;4.700;2022-07-10T09:57:10;28.80;66.60
17152;DHT22;8691;50.828;4.700;2022-07-10T09:59:37;28.80;66.60
17152;DHT22;8691;50.828;4.700;2022-07-10T10:02:04;28.80;66.80
17152;DHT22;8691;50.828;4.700;2022-07-10T10:04:31;29.40;65.60
17152;DHT22;8691;50.828;4.700;2022-07-10T10:06:58;29.80;64.40
17152;DHT22;8691;50.828;4.700;2022-07-10T10:12:05;28.90;65.30
17152;DHT22;8691;50.828;4.700;2022-07-10T10:14:28;28.00;66.30
17152;DHT22;8691;50.828;4.700;2022-07-10T10:16:55;28.00;66.30
17152;DHT22;8691;50.828;4.700;2022-07-10T10:19:25;28.00;67.30
17152;DHT22;8691;50.828;4.700;2022-07-10T10:22:06;28.80;68.00
17152;DHT22;8691;50.828;4.700;2022-07-10T10:24:33;29.90;64.60
17152;DHT22;8691;50.828;4.700;2022-07-10T10:27:01;29.50;63.00
17152;DHT22;8691;50.828;4.700;2022-07-10T10:29:28;29.50;62.90
17152;DHT22;8691;50.828;4.700;2022-07-10T10:31:55;28.20;66.10
17152;DHT22;8691;50.828;4.700;2022-07-10T10:34:44;27.20;69.30
17152;DHT22;8691;50.828;4.700;2022-07-10T10:37:32;26.60;70.60
17152;DHT22;8691;50.828;4.700;2022-07-10T10:39:51;26.50;72.00
17152;DHT22;8691;50.828;4.700;2022-07-10T10:42:02;26.40;72.50
17152;DHT22;8691;50.828;4.700;2022-07-10T10:44:29;26.30;72.40
17152;DHT22;8691;50.828;4.700;2022-07-10T10:46:57;26.50;72.70
17152;DHT22;8691;50.828;4.700;2022-07-10T10:50:11;26.60;72.20
17152;DHT22;8691;50.828;4.700;2022-07-10T10:52:03;26.90;72.80
17152;DHT22;8691;50.828;4.700;2022-07-10T10:54:29;26.90;72.70
17152;DHT22;8691;50.828;4.700;2022-07-10T10:57:14;27.40;70.50
17152;DHT22;8691;50.828;4.700;2022-07-10T10:59:46;27.80;69.40
17152;DHT22;8691;50.828;4.700;2022-07-10T11:02:28;27.90;68.50
17152;DHT22;8691;50.828;4.700;2022-07-10T11:07:58;27.40;71.70
17152;DHT22;8691;50.828;4.700;2022-07-10T11:10:33;27.00;72.30
17152;DHT22;8691;50.828;4.700;2022-07-10T11:13:06;27.00;72.90
17152;DHT22;8691;50.828;4.700;2022-07-10T11:15:29;27.10;72.50
17152;DHT22;8691;50.828;4.700;2022-07-10T11:18:14;26.90;74.60
17152;DHT22;8691;50.828;4.700;2022-07-10T11:20:24;27.10;73.40
17152;DHT22;8691;50.828;4.700;2022-07-10T11:25:49;27.40;70.40
17152;DHT22;8691;50.828;4.700;2022-07-10T11:28:17;27.50;71.40
17152;DHT22;8691;50.828;4.700;2022-07-10T11:30:46;27.80;71.00
17152;DHT22;8691;50.828;4.700;2022-07-10T11:33:12;27.80;71.00
17152;DHT22;8691;50.828;4.700;2022-07-10T11:35:39;28.10;69.50
17152;DHT22;8691;50.828;4.700;2022-07-10T11:38:06;27.50;71.00
17152;DHT22;8691;50.828;4.700;2022-07-10T11:40:36;27.60;70.50
17152;DHT22;8691;50.828;4.700;2022-07-10T11:43:04;28.00;71.20
17152;DHT22;8691;50.828;4.700;2022-07-10T11:45:32;27.80;70.50
17152;DHT22;8691;50.828;4.700;2022-07-10T11:47:59;27.80;70.50
17152;DHT22;8691;50.828;4.700;2022-07-10T11:50:25;27.70;70.60
17152;DHT22;8691;50.828;4.700;2022-07-10T11:52:53;27.40;72.10
17152;DHT22;8691;50.828;4.700;2022-07-10T11:55:20;27.40;72.10
17152;DHT22;8691;50.828;4.700;2022-07-10T11:57:47;26.80;75.00
17152;DHT22;8691;50.828;4.700;2022-07-10T12:00:26;26.70;75.70
17152;DHT22;8691;50.828;4.700;2022-07-10T12:02:52;27.00;75.70
17152;DHT22;8691;50.828;4.700;2022-07-10T12:08:00;27.80;71.40
17152;DHT22;8691;50.828;4.700;2022-07-10T12:10:28;28.10;70.80
17152;DHT22;8691;50.828;4.700;2022-07-10T12:13:07;28.10;70.80
17152;DHT22;8691;50.828;4.700;2022-07-10T12:15:37;28.20;71.00
17152;DHT22;8691;50.828;4.700;2022-07-10T12:18:00;27.90;71.10
17152;DHT22;8691;50.828;4.700;2022-07-10T12:20:27;28.10;71.80
17152;DHT22;8691;50.828;4.700;2022-07-10T12:22:54;28.00;70.80
17152;DHT22;8691;50.828;4.700;2022-07-10T12:25:21;27.80;71.90
17152;DHT22;8691;50.828;4.700;2022-07-10T12:27:48;27.70;73.20
17152;DHT22;8691;50.828;4.700;2022-07-10T12:30:15;27.80;74.20
17152;DHT22;8691;50.828;4.700;2022-07-10T12:32:42;27.00;73.20
17152;DHT22;8691;50.828;4.700;2022-07-10T12:35:09;26.90;74.40
17152;DHT22;8691;50.828;4.700;2022-07-10T12:37:36;27.00;74.80
17152;DHT22;8691;50.828;4.700;2022-07-10T12:40:03;27.40;74.80
17152;DHT22;8691;50.828;4.700;2022-07-10T12:42:30;27.30;74.60
17152;DHT22;8691;50.828;4.700;2022-07-10T12:45:09;27.10;75.70
17152;DHT22;8691;50.828;4.700;2022-07-10T12:47:47;27.30;74.70
17152;DHT22;8691;50.828;4.700;2022-07-10T12:50:15;27.30;75.20
17152;DHT22;8691;50.828;4.700;2022-07-10T12:52:41;27.30;75.20
17152;DHT22;8691;50.828;4.700;2022-07-10T12:55:18;26.90;75.30
17152;DHT22;8691;50.828;4.700;2022-07-10T13:00:21;26.60;76.80
17152;DHT22;8691;50.828;4.700;2022-07-10T13:02:47;26.80;78.00
17152;DHT22;8691;50.828;4.700;2022-07-10T13:08:21;26.40;77.70
17152;DHT22;8691;50.828;4.700;2022-07-10T13:10:45;26.20;78.40
17152;DHT22;8691;50.828;4.700;2022-07-10T13:13:12;26.30;77.90
17152;DHT22;8691;50.828;4.700;2022-07-10T13:15:39;26.30;77.90
17152;DHT22;8691;50.828;4.700;2022-07-10T13:18:17;26.50;78.60
17152;DHT22;8691;50.828;4.700;2022-07-10T13:20:41;26.60;76.20
17152;DHT22;8691;50.828;4.700;2022-07-10T13:23:08;26.70;76.10
17152;DHT22;8691;50.828;4.700;2022-07-10T13:25:36;26.30;75.90
17152;DHT22;8691;50.828;4.700;2022-07-10T13:28:02;26.00;77.10
17152;DHT22;8691;50.828;4.700;2022-07-10T13:30:28;25.70;78.50
17152;DHT22;8691;50.828;4.700;2022-07-10T13:32:55;25.70;78.60
17152;DHT22;8691;50.828;4.700;2022-07-10T13:35:22;25.90;79.30
17152;DHT22;8691;50.828;4.700;2022-07-10T13:37:49;26.30;77.10
17152;DHT22;8691;50.828;4.700;2022-07-10T13:40:16;26.50;77.60
17152;DHT22;8691;50.828;4.700;2022-07-10T13:42:42;26.60;78.20
17152;DHT22;8691;50.828;4.700;2022-07-10T13:45:09;26.60;78.40
17152;DHT22;8691;50.828;4.700;2022-07-10T13:47:37;26.80;78.20
17152;DHT22;8691;50.828;4.700;2022-07-10T13:50:04;26.80;78.10
17152;DHT22;8691;50.828;4.700;2022-07-10T13:52:31;27.30;77.50
17152;DHT22;8691;50.828;4.700;2022-07-10T13:54:58;27.60;75.80
17152;DHT22;8691;50.828;4.700;2022-07-10T13:57:24;27.80;75.10
17152;DHT22;8691;50.828;4.700;2022-07-10T13:59:52;28.00;73.80
17152;DHT22;8691;50.828;4.700;2022-07-10T14:02:18;28.00;72.90
17152;DHT22;8691;50.828;4.700;2022-07-10T14:04:45;28.10;74.00
17152;DHT22;8691;50.828;4.700;2022-07-10T14:07:13;29.00;72.20
17152;DHT22;8691;50.828;4.700;2022-07-10T14:09:41;29.10;71.70
17152;DHT22;8691;50.828;4.700;2022-07-10T14:12:08;29.10;71.70
17152;DHT22;8691;50.828;4.700;2022-07-10T14:14:35;28.60;72.40
17152;DHT22;8691;50.828;4.700;2022-07-10T14:17:01;28.50;72.30
17152;DHT22;8691;50.828;4.700;2022-07-10T14:19:29;28.30;73.00
17152;DHT22;8691;50.828;4.700;2022-07-10T14:21:55;28.10;73.20
17152;DHT22;8691;50.828;4.700;2022-07-10T14:24:22;28.10;74.30
17152;DHT22;8691;50.828;4.700;2022-07-10T14:26:49;27.70;74.00
17152;DHT22;8691;50.828;4.700;2022-07-10T14:29:16;27.50;73.90
17152;DHT22;8691;50.828;4.700;2022-07-10T14:31:43;27.40;74.20
17152;DHT22;8691;50.828;4.700;2022-07-10T14:34:09;27.30;75.20
17152;DHT22;8691;50.828;4.700;2022-07-10T14:36:36;27.20;75.30
17152;DHT22;8691;50.828;4.700;2022-07-10T14:39:03;27.00;76.50
17152;DHT22;8691;50.828;4.700;2022-07-10T14:41:30;26.80;76.80
17152;DHT22;8691;50.828;4.700;2022-07-10T14:43:58;26.40;79.40
17152;DHT22;8691;50.828;4.700;2022-07-10T14:46:25;26.30;79.30
17152;DHT22;8691;50.828;4.700;2022-07-10T14:48:52;26.30;78.30
17152;DHT22;8691;50.828;4.700;2022-07-10T14:51:18;26.20;79.60
17152;DHT22;8691;50.828;4.700;2022-07-10T14:53:46;26.30;78.80
17152;DHT22;8691;50.828;4.700;2022-07-10T14:56:13;26.30;78.80
17152;DHT22;8691;50.828;4.700;2022-07-10T14:58:40;26.20;79.60
17152;DHT22;8691;50.828;4.700;2022-07-10T15:01:07;26.10;80.10
17152;DHT22;8691;50.828;4.700;2022-07-10T15:03:34;26.50;79.80
17152;DHT22;8691;50.828;4.700;2022-07-10T15:06:00;27.00;76.90
17152;DHT22;8691;50.828;4.700;2022-07-10T15:08:27;27.10;77.10
17152;DHT22;8691;50.828;4.700;2022-07-10T15:10:55;26.90;77.90
17152;DHT22;8691;50.828;4.700;2022-07-10T15:13:22;26.90;77.80
17152;DHT22;8691;50.828;4.700;2022-07-10T15:15:49;26.70;77.20
17152;DHT22;8691;50.828;4.700;2022-07-10T15:18:16;26.70;77.50
17152;DHT22;8691;50.828;4.700;2022-07-10T15:20:43;26.90;77.80
17152;DHT22;8691;50.828;4.700;2022-07-10T15:23:10;26.90;77.70
17152;DHT22;8691;50.828;4.700;2022-07-10T15:25:37;27.10;77.00
17152;DHT22;8691;50.828;4.700;2022-07-10T15:28:03;27.20;76.70
17152;DHT22;8691;50.828;4.700;2022-07-10T15:30:30;27.20;76.20
17152;DHT22;8691;50.828;4.700;2022-07-10T15:32:57;27.30;76.40
17152;DHT22;8691;50.828;4.700;2022-07-10T15:35:24;27.00;76.20
17152;DHT22;8691;50.828;4.700;2022-07-10T15:37:51;27.10;77.60
17152;DHT22;8691;50.828;4.700;2022-07-10T15:40:18;27.20;75.90
17152;DHT22;8691;50.828;4.700;2022-07-10T15:42:45;27.20;75.90
17152;DHT22;8691;50.828;4.700;2022-07-10T15:45:12;27.20;76.10
17152;DHT22;8691;50.828;4.700;2022-07-10T15:47:39;27.20;76.10
17152;DHT22;8691;50.828;4.700;2022-07-10T15:50:06;27.00;78.10
17152;DHT22;8691;50.828;4.700;2022-07-10T15:52:33;27.10;75.70
17152;DHT22;8691;50.828;4.700;2022-07-10T15:55:00;27.20;76.40
17152;DHT22;8691;50.828;4.700;2022-07-10T15:57:26;27.10;76.60
17152;DHT22;8691;50.828;4.700;2022-07-10T15:59:53;27.00;76.10
17152;DHT22;8691;50.828;4.700;2022-07-10T16:02:20;26.80;77.00
17152;DHT22;8691;50.828;4.700;2022-07-10T16:04:47;26.50;77.60
17152;DHT22;8691;50.828;4.700;2022-07-10T16:07:14;26.30;78.30
17152;DHT22;8691;50.828;4.700;2022-07-10T16:09:41;26.40;78.10